sensor_id;sensor_type;location;lat;lon;timestamp;pressure;altitude;pressure_sealevel;temperature;humidity
51315;BME280;65787;59.922;10.742;2023-08-08T00:00:08;98021.38;;;28.99;41.65
51315;BME280;65787;59.922;10.742;2023-08-08T00:02:35;98113.34;;;29.60;41.79
51315;BME280;65787;59.922;10.742;2023-08-08T00:05:00;98107.75;;;29.56;41.41
51315;BME280;65787;59.922;10.742;2023-08-08T00:07:26;98107.72;;;29.52;41.73
51315;BME280;65787;59.922;10.742;2023-08-08T00:09:51;98107.69;;;29.49;41.94
51315;BME280;65787;59.922;10.742;2023-08-08T00:12:16;98099.75;;;29.47;41.79
51315;BME280;65787;59.922;10.742;2023-08-08T00:14:42;98107.66;;;29.45;41.87
51315;BME280;65787;59.922;10.742;2023-08-08T00:17:07;98095.03;;;29.48;41.60
51315;BME280;65787;59.922;10.742;2023-08-08T00:19:32;98097.81;;;29.48;41.98
51315;BME280;65787;59.922;10.742;2023-08-08T00:21:58;98098.59;;;29.48;41.78
51315;BME280;65787;59.922;10.742;2023-08-08T00:24:23;98106.91;;;29.48;41.50
51315;BME280;65787;59.922;10.742;2023-08-08T00:26:48;98120.34;;;29.50;41.61
51315;BME280;65787;59.922;10.742;2023-08-08T00:29:14;98104.03;;;29.41;41.48
51315;BME280;65787;59.922;10.742;2023-08-08T00:31:40;98110.81;;;29.47;42.00
51315;BME280;65787;59.922;10.742;2023-08-08T00:34:05;98111.22;;;29.46;41.82
51315;BME280;65787;59.922;10.742;2023-08-08T00:36:31;98100.91;;;29.43;41.87
51315;BME280;65787;59.922;10.742;2023-08-08T00:38:56;98102.88;;;29.42;41.71
51315;BME280;65787;59.922;10.742;2023-08-08T00:41:21;98099.69;;;29.40;41.51
51315;BME280;65787;59.922;10.742;2023-08-08T00:43:47;98101.19;;;29.34;41.89
51315;BME280;65787;59.922;10.742;2023-08-08T00:46:13;98105.91;;;29.30;41.77
51315;BME280;65787;59.922;10.742;2023-08-08T00:48:39;98103.91;;;29.30;41.46
51315;BME280;65787;59.922;10.742;2023-08-08T00:51:04;98102.72;;;29.28;41.30
51315;BME280;65787;59.922;10.742;2023-08-08T00:53:30;98098.75;;;29.25;41.50
51315;BME280;65787;59.922;10.742;2023-08-08T00:55:56;98096.41;;;29.27;41.57
51315;BME280;65787;59.922;10.742;2023-08-08T00:58:23;98095.53;;;29.23;41.29
51315;BME280;65787;59.922;10.742;2023-08-08T01:00:49;98092.34;;;29.21;41.55
51315;BME280;65787;59.922;10.742;2023-08-08T01:03:14;98093.53;;;29.20;41.50
51315;BME280;65787;59.922;10.742;2023-08-08T01:05:42;98091.16;;;29.19;41.19
51315;BME280;65787;59.922;10.742;2023-08-08T01:08:09;98089.13;;;29.15;41.25
51315;BME280;65787;59.922;10.742;2023-08-08T01:10:37;98078.44;;;29.14;41.15
51315;BME280;65787;59.922;10.742;2023-08-08T01:13:04;98087.88;;;29.13;41.08
51315;BME280;65787;59.922;10.742;2023-08-08T01:15:30;98084.66;;;29.07;41.54
51315;BME280;65787;59.922;10.742;2023-08-08T01:18:04;98091.41;;;29.10;41.01
51315;BME280;65787;59.922;10.742;2023-08-08T01:20:30;98089.63;;;28.94;41.50
51315;BME280;65787;59.922;10.742;2023-08-08T01:25:42;98085.19;;;28.86;41.49
51315;BME280;65787;59.922;10.742;2023-08-08T01:28:08;98084.38;;;28.86;41.57
51315;BME280;65787;59.922;10.742;2023-08-08T01:30:33;98076.91;;;28.86;41.83
51315;BME280;65787;59.922;10.742;2023-08-08T01:32:59;98075.34;;;28.89;41.47
51315;BME280;65787;59.922;10.742;2023-08-08T01:35:26;98078.13;;;28.89;41.48
51315;BME280;65787;59.922;10.742;2023-08-08T01:37:54;98073.00;;;28.91;41.62
51315;BME280;65787;59.922;10.742;2023-08-08T01:40:21;98070.63;;;28.89;41.20
51315;BME280;65787;59.922;10.742;2023-08-08T01:42:47;98075.34;;;28.89;41.17
51315;BME280;65787;59.922;10.742;2023-08-08T01:45:14;98066.28;;;28.88;41.52
51315;BME280;65787;59.922;10.742;2023-08-08T01:47:40;98072.13;;;28.83;41.55
51315;BME280;65787;59.922;10.742;2023-08-08T01:50:06;98067.81;;;28.86;41.26
51315;BME280;65787;59.922;10.742;2023-08-08T01:52:32;98065.03;;;28.86;41.43
51315;BME280;65787;59.922;10.742;2023-08-08T01:54:57;98058.31;;;28.83;41.16
51315;BME280;65787;59.922;10.742;2023-08-08T01:57:23;98043.25;;;28.81;41.27
51315;BME280;65787;59.922;10.742;2023-08-08T01:59:48;98040.50;;;28.81;41.50
51315;BME280;65787;59.922;10.742;2023-08-08T02:02:14;98031.78;;;28.79;41.12
51315;BME280;65787;59.922;10.742;2023-08-08T02:04:42;98026.66;;;28.77;41.26
51315;BME280;65787;59.922;10.742;2023-08-08T02:07:07;98025.81;;;28.73;41.37
51315;BME280;65787;59.922;10.742;2023-08-08T02:09:32;98027.72;;;28.69;41.33
51315;BME280;65787;59.922;10.742;2023-08-08T02:11:58;98040.69;;;28.65;41.33
51315;BME280;65787;59.922;10.742;2023-08-08T02:14:24;98037.06;;;28.57;41.17
51315;BME280;65787;59.922;10.742;2023-08-08T02:16:49;98033.38;;;28.49;41.46
51315;BME280;65787;59.922;10.742;2023-08-08T02:19:14;98036.13;;;28.49;41.40
51315;BME280;65787;59.922;10.742;2023-08-08T02:21:40;98029.72;;;28.45;41.49
51315;BME280;65787;59.922;10.742;2023-08-08T02:24:05;98028.09;;;28.41;41.27
51315;BME280;65787;59.922;10.742;2023-08-08T02:26:31;98024.97;;;28.42;41.63
51315;BME280;65787;59.922;10.742;2023-08-08T02:28:56;98025.72;;;28.39;41.29
51315;BME280;65787;59.922;10.742;2023-08-08T02:31:21;98021.75;;;28.36;41.47
51315;BME280;65787;59.922;10.742;2023-08-08T02:33:49;98023.25;;;28.34;41.70
51315;BME280;65787;59.922;10.742;2023-08-08T02:36:18;98020.09;;;28.32;41.25
51315;BME280;65787;59.922;10.742;2023-08-08T02:38:43;98024.81;;;28.31;41.58
51315;BME280;65787;59.922;10.742;2023-08-08T02:41:09;98024.41;;;28.29;41.55
51315;BME280;65787;59.922;10.742;2023-08-08T02:43:34;98016.13;;;28.29;41.38
51315;BME280;65787;59.922;10.742;2023-08-08T02:46:00;98019.72;;;28.33;41.25
51315;BME280;65787;59.922;10.742;2023-08-08T02:48:25;98008.25;;;28.31;41.33
51315;BME280;65787;59.922;10.742;2023-08-08T02:50:50;98012.66;;;28.36;41.19
51315;BME280;65787;59.922;10.742;2023-08-08T02:53:15;98009.03;;;28.32;41.62
51315;BME280;65787;59.922;10.742;2023-08-08T02:55:40;98005.06;;;28.29;41.39
51315;BME280;65787;59.922;10.742;2023-08-08T02:58:06;97996.78;;;28.29;41.36
51315;BME280;65787;59.922;10.742;2023-08-08T03:00:31;97989.66;;;28.28;41.58
51315;BME280;65787;59.922;10.742;2023-08-08T03:02:56;97993.25;;;28.29;41.47
51315;BME280;65787;59.922;10.742;2023-08-08T03:05:22;97994.03;;;28.29;40.72
51315;BME280;65787;59.922;10.742;2023-08-08T03:07:47;97995.47;;;28.19;41.18
51315;BME280;65787;59.922;10.742;2023-08-08T03:10:13;97988.34;;;28.18;40.92
51315;BME280;65787;59.922;10.742;2023-08-08T03:12:38;97982.03;;;28.18;41.20
51315;BME280;65787;59.922;10.742;2023-08-08T03:15:04;97977.72;;;28.21;41.37
51315;BME280;65787;59.922;10.742;2023-08-08T03:17:30;97985.59;;;28.18;41.35
51315;BME280;65787;59.922;10.742;2023-08-08T03:19:56;97987.97;;;28.20;41.31
51315;BME280;65787;59.922;10.742;2023-08-08T03:22:21;97982.41;;;28.16;41.34
51315;BME280;65787;59.922;10.742;2023-08-08T03:24:46;97976.53;;;28.18;40.92
51315;BME280;65787;59.922;10.742;2023-08-08T03:27:11;97964.66;;;28.17;41.26
51315;BME280;65787;59.922;10.742;2023-08-08T03:29:37;97966.28;;;28.18;41.10
51315;BME280;65787;59.922;10.742;2023-08-08T03:32:03;97962.34;;;28.19;41.10
51315;BME280;65787;59.922;10.742;2023-08-08T03:34:29;97962.31;;;28.16;41.09
51315;BME280;65787;59.922;10.742;2023-08-08T03:36:54;97972.09;;;28.13;41.07
51315;BME280;65787;59.922;10.742;2023-08-08T03:39:20;97976.47;;;28.14;41.05
51315;BME280;65787;59.922;10.742;2023-08-08T03:41:45;97971.31;;;28.13;41.27
51315;BME280;65787;59.922;10.742;2023-08-08T03:44:10;97978.44;;;28.14;40.97
51315;BME280;65787;59.922;10.742;2023-08-08T03:46:36;97962.31;;;28.16;41.44
51315;BME280;65787;59.922;10.742;2023-08-08T03:49:01;97962.31;;;28.16;41.15
51315;BME280;65787;59.922;10.742;2023-08-08T03:51:28;97963.88;;;28.17;41.09
51315;BME280;65787;59.922;10.742;2023-08-08T03:53:54;97952.47;;;28.18;41.09
51315;BME280;65787;59.922;10.742;2023-08-08T03:56:19;97954.88;;;28.20;40.97
51315;BME280;65787;59.922;10.742;2023-08-08T03:58:45;97958.00;;;28.18;41.04
51315;BME280;65787;59.922;10.742;2023-08-08T04:01:10;97964.13;;;28.05;40.56
51315;BME280;65787;59.922;10.742;2023-08-08T04:03:36;97960.53;;;28.04;40.53
51315;BME280;65787;59.922;10.742;2023-08-08T04:06:02;97956.22;;;28.03;40.68
51315;BME280;65787;59.922;10.742;2023-08-08T04:08:27;97956.53;;;27.98;40.79
51315;BME280;65787;59.922;10.742;2023-08-08T04:10:52;97950.53;;;27.92;40.76
51315;BME280;65787;59.922;10.742;2023-08-08T04:13:19;97952.41;;;27.88;40.99
51315;BME280;65787;59.922;10.742;2023-08-08T04:15:44;97959.88;;;27.88;40.76
51315;BME280;65787;59.922;10.742;2023-08-08T04:18:09;97945.28;;;27.87;40.91
51315;BME280;65787;59.922;10.742;2023-08-08T04:20:34;97943.81;;;27.93;40.77
51315;BME280;65787;59.922;10.742;2023-08-08T04:23:00;97945.44;;;27.94;40.27
51315;BME280;65787;59.922;10.742;2023-08-08T04:25:25;97935.94;;;27.92;40.60
51315;BME280;65787;59.922;10.742;2023-08-08T04:27:51;97933.66;;;27.97;41.01
51315;BME280;65787;59.922;10.742;2023-08-08T04:30:16;97932.78;;;27.93;40.65
51315;BME280;65787;59.922;10.742;2023-08-08T04:32:41;97924.81;;;27.88;40.94
51315;BME280;65787;59.922;10.742;2023-08-08T04:35:06;97925.97;;;27.87;40.98
51315;BME280;65787;59.922;10.742;2023-08-08T04:37:32;97922.63;;;27.97;40.56
51315;BME280;65787;59.922;10.742;2023-08-08T04:39:57;97921.44;;;27.98;40.58
51315;BME280;65787;59.922;10.742;2023-08-08T04:42:22;97922.16;;;27.92;40.59
51315;BME280;65787;59.922;10.742;2023-08-08T04:44:48;97911.53;;;27.94;40.81
51315;BME280;65787;59.922;10.742;2023-08-08T04:47:13;97915.50;;;27.96;40.75
51315;BME280;65787;59.922;10.742;2023-08-08T04:49:38;97917.09;;;27.97;40.88
51315;BME280;65787;59.922;10.742;2023-08-08T04:52:04;97909.97;;;27.96;41.07
51315;BME280;65787;59.922;10.742;2023-08-08T04:54:29;97907.59;;;27.95;40.70
51315;BME280;65787;59.922;10.742;2023-08-08T04:56:55;97900.56;;;27.97;40.79
51315;BME280;65787;59.922;10.742;2023-08-08T04:59:20;97902.94;;;27.99;40.83
51315;BME280;65787;59.922;10.742;2023-08-08T05:01:45;97900.22;;;28.03;40.82
51315;BME280;65787;59.922;10.742;2023-08-08T05:04:10;97895.56;;;28.07;40.85
51315;BME280;65787;59.922;10.742;2023-08-08T05:06:36;97892.38;;;28.05;40.10
51315;BME280;65787;59.922;10.742;2023-08-08T05:09:01;97888.81;;;28.04;40.44
51315;BME280;65787;59.922;10.742;2023-08-08T05:11:26;97891.13;;;28.02;40.45
51315;BME280;65787;59.922;10.742;2023-08-08T05:13:51;97899.09;;;28.07;40.32
51315;BME280;65787;59.922;10.742;2023-08-08T05:16:17;97894.75;;;28.06;40.44
51315;BME280;65787;59.922;10.742;2023-08-08T05:18:43;97891.13;;;28.02;40.02
51315;BME280;65787;59.922;10.742;2023-08-08T05:21:10;97888.06;;;28.07;40.56
51315;BME280;65787;59.922;10.742;2023-08-08T05:23:35;97892.38;;;28.05;40.18
51315;BME280;65787;59.922;10.742;2023-08-08T05:26:01;97890.41;;;28.05;40.47
51315;BME280;65787;59.922;10.742;2023-08-08T05:28:26;97885.69;;;28.06;40.45
51315;BME280;65787;59.922;10.742;2023-08-08T05:30:51;97881.47;;;28.15;40.52
51315;BME280;65787;59.922;10.742;2023-08-08T05:33:16;97875.63;;;28.21;40.60
51315;BME280;65787;59.922;10.742;2023-08-08T05:35:42;97868.16;;;28.25;40.54
51315;BME280;65787;59.922;10.742;2023-08-08T05:38:07;97863.13;;;28.30;40.49
51315;BME280;65787;59.922;10.742;2023-08-08T05:40:36;97862.78;;;28.35;40.59
51315;BME280;65787;59.922;10.742;2023-08-08T05:43:02;97850.09;;;28.27;39.95
51315;BME280;65787;59.922;10.742;2023-08-08T05:45:27;97863.53;;;28.32;40.50
51315;BME280;65787;59.922;10.742;2023-08-08T05:47:53;97866.72;;;28.34;40.60
51315;BME280;65787;59.922;10.742;2023-08-08T05:50:19;97860.75;;;28.32;40.44
51315;BME280;65787;59.922;10.742;2023-08-08T05:52:44;97858.81;;;28.33;40.21
51315;BME280;65787;59.922;10.742;2023-08-08T05:55:10;97859.25;;;28.35;40.36
51315;BME280;65787;59.922;10.742;2023-08-08T05:57:35;97861.25;;;28.38;39.69
51315;BME280;65787;59.922;10.742;2023-08-08T06:00:01;97855.75;;;28.42;39.65
51315;BME280;65787;59.922;10.742;2023-08-08T06:02:26;97858.19;;;28.47;39.88
51315;BME280;65787;59.922;10.742;2023-08-08T06:04:51;97853.47;;;28.51;39.20
51315;BME280;65787;59.922;10.742;2023-08-08T06:07:16;97847.63;;;28.52;40.04
51315;BME280;65787;59.922;10.742;2023-08-08T06:09:42;97842.50;;;28.54;39.47
51315;BME280;65787;59.922;10.742;2023-08-08T06:12:07;97842.13;;;28.56;40.00
51315;BME280;65787;59.922;10.742;2023-08-08T06:14:32;97845.28;;;28.54;40.09
51315;BME280;65787;59.922;10.742;2023-08-08T06:17:01;97836.63;;;28.56;39.89
51315;BME280;65787;59.922;10.742;2023-08-08T06:19:26;97831.91;;;28.60;40.05
51315;BME280;65787;59.922;10.742;2023-08-08T06:21:52;97834.34;;;28.65;39.61
51315;BME280;65787;59.922;10.742;2023-08-08T06:24:17;97827.63;;;28.63;39.83
51315;BME280;65787;59.922;10.742;2023-08-08T06:26:42;97821.72;;;28.64;39.61
51315;BME280;65787;59.922;10.742;2023-08-08T06:29:08;97824.50;;;28.64;39.98
51315;BME280;65787;59.922;10.742;2023-08-08T06:31:33;97809.06;;;28.63;39.52
51315;BME280;65787;59.922;10.742;2023-08-08T06:33:58;97815.78;;;28.62;39.49
51315;BME280;65787;59.922;10.742;2023-08-08T06:36:23;97802.78;;;28.63;40.05
51315;BME280;65787;59.922;10.742;2023-08-08T06:38:49;97794.00;;;28.53;40.04
51315;BME280;65787;59.922;10.742;2023-08-08T06:41:14;97790.88;;;28.55;39.86
51315;BME280;65787;59.922;10.742;2023-08-08T06:43:39;97800.31;;;28.54;39.47
51315;BME280;65787;59.922;10.742;2023-08-08T06:46:05;97792.31;;;28.49;40.09
51315;BME280;65787;59.922;10.742;2023-08-08T06:48:30;97788.03;;;28.51;40.14
51315;BME280;65787;59.922;10.742;2023-08-08T06:50:55;97788.03;;;28.51;39.71
51315;BME280;65787;59.922;10.742;2023-08-08T06:53:20;97777.84;;;28.55;40.12
51315;BME280;65787;59.922;10.742;2023-08-08T06:55:46;97772.00;;;28.64;40.13
51315;BME280;65787;59.922;10.742;2023-08-08T06:58:11;97777.97;;;28.70;39.79
51315;BME280;65787;59.922;10.742;2023-08-08T07:00:36;97763.44;;;28.76;40.01
51315;BME280;65787;59.922;10.742;2023-08-08T07:03:01;97765.03;;;28.77;40.02
51315;BME280;65787;59.922;10.742;2023-08-08T07:05:27;97762.31;;;28.85;39.69
51315;BME280;65787;59.922;10.742;2023-08-08T07:07:52;97759.97;;;28.87;39.33
51315;BME280;65787;59.922;10.742;2023-08-08T07:10:18;97758.00;;;28.87;39.25
51315;BME280;65787;59.922;10.742;2023-08-08T07:12:44;97747.31;;;28.86;39.43
51315;BME280;65787;59.922;10.742;2023-08-08T07:15:09;97742.63;;;28.90;38.93
51315;BME280;65787;59.922;10.742;2023-08-08T07:17:34;97747.75;;;28.91;39.37
51315;BME280;65787;59.922;10.742;2023-08-08T07:20:00;97740.28;;;28.92;39.61
51315;BME280;65787;59.922;10.742;2023-08-08T07:22:25;97737.53;;;28.95;39.17
51315;BME280;65787;59.922;10.742;2023-08-08T07:24:50;97732.81;;;28.96;39.39
51315;BME280;65787;59.922;10.742;2023-08-08T07:27:16;97734.41;;;29.01;39.61
51315;BME280;65787;59.922;10.742;2023-08-08T07:29:41;97732.06;;;29.03;39.07
51315;BME280;65787;59.922;10.742;2023-08-08T07:32:06;97739.63;;;29.09;39.76
51315;BME280;65787;59.922;10.742;2023-08-08T07:34:32;97733.75;;;29.14;39.73
51315;BME280;65787;59.922;10.742;2023-08-08T07:36:57;97739.31;;;29.18;38.89
51315;BME280;65787;59.922;10.742;2023-08-08T07:39:23;97723.50;;;29.19;39.33
51315;BME280;65787;59.922;10.742;2023-08-08T07:41:48;97714.06;;;29.23;38.94
51315;BME280;65787;59.922;10.742;2023-08-08T07:44:13;97712.13;;;29.27;39.33
51315;BME280;65787;59.922;10.742;2023-08-08T07:46:39;97705.00;;;29.26;39.21
51315;BME280;65787;59.922;10.742;2023-08-08T07:49:04;97699.09;;;29.28;38.99
51315;BME280;65787;59.922;10.742;2023-08-08T07:51:30;97699.44;;;29.23;39.22
51315;BME280;65787;59.922;10.742;2023-08-08T07:53:56;97696.34;;;29.31;39.31
51315;BME280;65787;59.922;10.742;2023-08-08T07:56:22;97695.56;;;29.31;39.04
51315;BME280;65787;59.922;10.742;2023-08-08T07:58:47;97692.78;;;29.31;39.13
51315;BME280;65787;59.922;10.742;2023-08-08T08:01:12;97687.25;;;29.31;39.23
51315;BME280;65787;59.922;10.742;2023-08-08T08:03:38;97689.63;;;29.36;39.18
51315;BME280;65787;59.922;10.742;2023-08-08T08:06:04;97686.84;;;29.32;39.07
51315;BME280;65787;59.922;10.742;2023-08-08T08:08:29;97682.16;;;29.37;39.45
51315;BME280;65787;59.922;10.742;2023-08-08T08:10:54;97687.25;;;29.31;39.04
51315;BME280;65787;59.922;10.742;2023-08-08T08:13:21;97679.75;;;29.31;38.83
51315;BME280;65787;59.922;10.742;2023-08-08T08:15:47;97678.16;;;29.30;39.42
51315;BME280;65787;59.922;10.742;2023-08-08T08:18:12;97675.41;;;29.30;39.13
51315;BME280;65787;59.922;10.742;2023-08-08T08:20:39;97668.72;;;29.35;38.70
51315;BME280;65787;59.922;10.742;2023-08-08T08:23:04;97664.75;;;29.36;39.05
51315;BME280;65787;59.922;10.742;2023-08-08T08:25:29;97657.28;;;29.37;38.78
51315;BME280;65787;59.922;10.742;2023-08-08T08:27:55;97652.19;;;29.46;39.28
51315;BME280;65787;59.922;10.742;2023-08-08T08:30:20;97656.16;;;29.56;39.42
51315;BME280;65787;59.922;10.742;2023-08-08T08:32:48;97647.09;;;29.66;39.20
51315;BME280;65787;59.922;10.742;2023-08-08T08:35:13;97647.06;;;29.62;39.60
51315;BME280;65787;59.922;10.742;2023-08-08T08:37:39;97639.56;;;29.59;39.12
51315;BME280;65787;59.922;10.742;2023-08-08T08:40:04;97634.41;;;29.54;39.32
51315;BME280;65787;59.922;10.742;2023-08-08T08:42:30;97626.91;;;29.54;39.24
51315;BME280;65787;59.922;10.742;2023-08-08T08:44:57;97610.31;;;29.58;39.25
51315;BME280;65787;59.922;10.742;2023-08-08T08:47:22;97604.44;;;29.67;39.12
51315;BME280;65787;59.922;10.742;2023-08-08T08:49:49;97602.84;;;29.73;39.06
51315;BME280;65787;59.922;10.742;2023-08-08T08:52:14;97602.13;;;29.80;39.06
51315;BME280;65787;59.922;10.742;2023-08-08T08:54:40;97583.53;;;29.84;38.97
51315;BME280;65787;59.922;10.742;2023-08-08T08:57:06;97590.66;;;29.92;38.91
51315;BME280;65787;59.922;10.742;2023-08-08T08:59:31;97581.97;;;29.94;39.06
51315;BME280;65787;59.922;10.742;2023-08-08T09:01:58;97569.72;;;29.98;38.83
51315;BME280;65787;59.922;10.742;2023-08-08T09:04:24;97563.41;;;30.08;38.59
51315;BME280;65787;59.922;10.742;2023-08-08T09:06:50;97563.41;;;30.16;38.53
51315;BME280;65787;59.922;10.742;2023-08-08T09:09:16;97549.16;;;30.21;38.32
51315;BME280;65787;59.922;10.742;2023-08-08T09:11:45;97549.94;;;30.28;38.48
51315;BME280;65787;59.922;10.742;2023-08-08T09:14:21;97548.81;;;30.33;38.47
51315;BME280;65787;59.922;10.742;2023-08-08T09:16:46;97555.13;;;30.41;38.68
51315;BME280;65787;59.922;10.742;2023-08-08T09:19:12;97541.25;;;30.44;38.40
51315;BME280;65787;59.922;10.742;2023-08-08T09:21:38;97544.03;;;30.48;38.44
51315;BME280;65787;59.922;10.742;2023-08-08T09:24:03;97551.13;;;30.49;38.16
51315;BME280;65787;59.922;10.742;2023-08-08T09:26:29;97550.72;;;30.58;38.19
51315;BME280;65787;59.922;10.742;2023-08-08T09:28:57;97550.72;;;30.61;38.31
51315;BME280;65787;59.922;10.742;2023-08-08T09:31:25;97551.13;;;30.60;38.14
51315;BME280;65787;59.922;10.742;2023-08-08T09:33:51;97547.56;;;30.59;38.14
51315;BME280;65787;59.922;10.742;2023-08-08T09:36:17;97547.56;;;30.63;38.49
51315;BME280;65787;59.922;10.742;2023-08-08T09:38:44;97546.34;;;30.60;37.79
51315;BME280;65787;59.922;10.742;2023-08-08T09:41:10;97534.88;;;30.62;37.59
51315;BME280;65787;59.922;10.742;2023-08-08T09:43:36;97542.00;;;30.66;38.08
51315;BME280;65787;59.922;10.742;2023-08-08T09:46:01;97542.00;;;30.66;37.20
51315;BME280;65787;59.922;10.742;2023-08-08T09:48:29;97530.56;;;30.54;37.42
51315;BME280;65787;59.922;10.742;2023-08-08T09:50:57;97524.22;;;30.49;37.22
51315;BME280;65787;59.922;10.742;2023-08-08T09:53:24;97521.44;;;30.53;37.89
51315;BME280;65787;59.922;10.742;2023-08-08T09:55:49;97515.91;;;30.57;38.29
51315;BME280;65787;59.922;10.742;2023-08-08T09:58:14;97508.34;;;30.61;37.81
51315;BME280;65787;59.922;10.742;2023-08-08T10:00:40;97509.19;;;30.58;37.91
51315;BME280;65787;59.922;10.742;2023-08-08T10:03:06;97505.59;;;30.61;37.69
51315;BME280;65787;59.922;10.742;2023-08-08T10:05:32;97502.44;;;30.59;37.74
51315;BME280;65787;59.922;10.742;2023-08-08T10:07:57;97498.88;;;30.58;37.81
51315;BME280;65787;59.922;10.742;2023-08-08T10:10:22;97492.16;;;30.56;38.10
51315;BME280;65787;59.922;10.742;2023-08-08T10:12:49;97493.72;;;30.57;38.24
51315;BME280;65787;59.922;10.742;2023-08-08T10:15:14;97492.56;;;30.54;38.29
51315;BME280;65787;59.922;10.742;2023-08-08T10:17:41;97493.72;;;30.64;38.23
51315;BME280;65787;59.922;10.742;2023-08-08T10:20:08;97477.06;;;30.71;38.66
51315;BME280;65787;59.922;10.742;2023-08-08T10:22:37;97483.84;;;30.63;37.45
51315;BME280;65787;59.922;10.742;2023-08-08T10:25:04;97479.84;;;30.75;37.86
51315;BME280;65787;59.922;10.742;2023-08-08T10:27:33;97487.75;;;30.73;38.13
51315;BME280;65787;59.922;10.742;2023-08-08T10:30:08;97478.22;;;30.77;37.62
51315;BME280;65787;59.922;10.742;2023-08-08T10:32:45;97477.47;;;30.73;37.42
51315;BME280;65787;59.922;10.742;2023-08-08T10:35:13;97470.72;;;30.78;36.46
51315;BME280;65787;59.922;10.742;2023-08-08T10:37:38;97467.13;;;30.81;37.03
51315;BME280;65787;59.922;10.742;2023-08-08T10:40:04;97470.72;;;30.78;37.09
51315;BME280;65787;59.922;10.742;2023-08-08T10:42:40;97463.97;;;30.79;37.53
51315;BME280;65787;59.922;10.742;2023-08-08T10:45:08;97468.75;;;30.75;37.73
51315;BME280;65787;59.922;10.742;2023-08-08T10:47:34;97466.78;;;30.68;36.64
51315;BME280;65787;59.922;10.742;2023-08-08T10:50:04;97456.16;;;30.63;36.87
51315;BME280;65787;59.922;10.742;2023-08-08T10:52:30;97462.06;;;30.61;37.06
51315;BME280;65787;59.922;10.742;2023-08-08T10:54:55;97459.69;;;30.60;36.43
51315;BME280;65787;59.922;10.742;2023-08-08T10:57:25;97466.81;;;30.61;37.01
51315;BME280;65787;59.922;10.742;2023-08-08T10:59:51;97467.22;;;30.59;36.37
51315;BME280;65787;59.922;10.742;2023-08-08T11:02:17;97464.06;;;30.57;36.81
51315;BME280;65787;59.922;10.742;2023-08-08T11:04:44;97463.69;;;30.52;36.59
51315;BME280;65787;59.922;10.742;2023-08-08T11:07:09;97466.06;;;30.49;36.13
51315;BME280;65787;59.922;10.742;2023-08-08T11:09:35;97470.78;;;30.56;37.25
51315;BME280;65787;59.922;10.742;2023-08-08T11:12:01;97467.66;;;30.51;36.61
51315;BME280;65787;59.922;10.742;2023-08-08T11:14:26;97465.69;;;30.44;36.46
51315;BME280;65787;59.922;10.742;2023-08-08T11:16:52;97472.81;;;30.48;37.52
51315;BME280;65787;59.922;10.742;2023-08-08T11:19:17;97464.47;;;30.52;36.25
51315;BME280;65787;59.922;10.742;2023-08-08T11:21:45;97462.47;;;30.60;36.56
51315;BME280;65787;59.922;10.742;2023-08-08T11:24:11;97466.03;;;30.60;36.88
51315;BME280;65787;59.922;10.742;2023-08-08T11:26:37;97460.91;;;30.55;36.11
51315;BME280;65787;59.922;10.742;2023-08-08T11:29:04;97453.00;;;30.57;36.78
51315;BME280;65787;59.922;10.742;2023-08-08T11:31:30;97466.03;;;30.53;36.55
51315;BME280;65787;59.922;10.742;2023-08-08T11:33:56;97457.72;;;30.57;36.15
51315;BME280;65787;59.922;10.742;2023-08-08T11:36:24;97451.81;;;30.51;36.62
51315;BME280;65787;59.922;10.742;2023-08-08T11:38:50;97451.81;;;30.47;36.21
51315;BME280;65787;59.922;10.742;2023-08-08T11:41:16;97451.44;;;30.42;36.38
51315;BME280;65787;59.922;10.742;2023-08-08T11:43:43;97455.41;;;30.48;36.62
51315;BME280;65787;59.922;10.742;2023-08-08T11:46:12;97453.41;;;30.52;35.91
51315;BME280;65787;59.922;10.742;2023-08-08T11:48:37;97456.97;;;30.49;35.06
51315;BME280;65787;59.922;10.742;2023-08-08T11:51:03;97456.97;;;30.49;36.23
51315;BME280;65787;59.922;10.742;2023-08-08T11:53:29;97451.78;;;30.62;35.96
51315;BME280;65787;59.922;10.742;2023-08-08T11:55:54;97449.34;;;30.78;36.87
51315;BME280;65787;59.922;10.742;2023-08-08T11:58:20;97448.13;;;30.83;36.78
51315;BME280;65787;59.922;10.742;2023-08-08T12:00:45;97450.53;;;30.70;34.92
51315;BME280;65787;59.922;10.742;2023-08-08T12:03:13;97438.31;;;30.67;36.62
51315;BME280;65787;59.922;10.742;2023-08-08T12:05:44;97437.53;;;30.63;35.01
51315;BME280;65787;59.922;10.742;2023-08-08T12:08:10;97441.50;;;30.55;36.06
51315;BME280;65787;59.922;10.742;2023-08-08T12:10:35;97429.59;;;30.65;36.28
51315;BME280;65787;59.922;10.742;2023-08-08T12:13:00;97432.41;;;30.58;36.10
51315;BME280;65787;59.922;10.742;2023-08-08T12:15:31;97426.44;;;30.67;36.10
51315;BME280;65787;59.922;10.742;2023-08-08T12:18:01;97425.97;;;30.76;36.36
51315;BME280;65787;59.922;10.742;2023-08-08T12:20:27;97413.69;;;30.84;34.27
51315;BME280;65787;59.922;10.742;2023-08-08T12:22:54;97417.22;;;30.95;34.65
51315;BME280;65787;59.922;10.742;2023-08-08T12:25:19;97414.03;;;31.00;35.96
51315;BME280;65787;59.922;10.742;2023-08-08T12:27:45;97407.56;;;31.18;36.02
51315;BME280;65787;59.922;10.742;2023-08-08T12:30:10;97406.69;;;31.32;35.70
51315;BME280;65787;59.922;10.742;2023-08-08T12:32:36;97407.09;;;31.30;35.67
51315;BME280;65787;59.922;10.742;2023-08-08T12:35:01;97404.25;;;31.41;35.92
51315;BME280;65787;59.922;10.742;2023-08-08T12:37:27;97403.91;;;31.32;34.84
51315;BME280;65787;59.922;10.742;2023-08-08T12:39:52;97400.34;;;31.31;34.80
51315;BME280;65787;59.922;10.742;2023-08-08T12:42:18;97398.81;;;31.23;37.31
51315;BME280;65787;59.922;10.742;2023-08-08T12:44:43;97395.28;;;31.19;36.58